sensor_id;sensor_type;location;lat;lon;timestamp;temperature;humidity
12568;DHT22;6349;50.904;6.136;2022-12-28T00:01:11;6.90;99.90
12568;DHT22;6349;50.904;6.136;2022-12-28T00:03:12;6.90;99.90
12568;DHT22;6349;50.904;6.136;2022-12-28T00:05:13;6.90;99.90
12568;DHT22;6349;50.904;6.136;2022-12-28T00:07:14;6.90;99.90
12568;DHT22;6349;50.904;6.136;2022-12-28T00:09:17;6.80;99.90
12568;DHT22;6349;50.904;6.136;2022-12-28T00:11:19;6.90;99.90
12568;DHT22;6349;50.904;6.136;2022-12-28T00:13:20;6.90;99.90
12568;DHT22;6349;50.904;6.136;2022-12-28T00:15:21;7.00;99.90
12568;DHT22;6349;50.904;6.136;2022-12-28T00:17:22;7.00;99.90
12568;DHT22;6349;50.904;6.136;2022-12-28T00:19:22;7.00;99.90
12568;DHT22;6349;50.904;6.136;2022-12-28T00:21:24;7.00;99.90
12568;DHT22;6349;50.904;6.136;2022-12-28T00:23:25;7.00;99.90
12568;DHT22;6349;50.904;6.136;2022-12-28T00:25:26;7.00;99.90
12568;DHT22;6349;50.904;6.136;2022-12-28T00:27:27;7.00;99.90
12568;DHT22;6349;50.904;6.136;2022-12-28T00:29:27;7.10;99.90
12568;DHT22;6349;50.904;6.136;2022-12-28T00:31:28;7.00;99.90
12568;DHT22;6349;50.904;6.136;2022-12-28T00:33:29;7.10;99.90
12568;DHT22;6349;50.904;6.136;2022-12-28T00:35:29;7.10;99.90
12568;DHT22;6349;50.904;6.136;2022-12-28T00:37:30;7.10;99.90
12568;DHT22;6349;50.904;6.136;2022-12-28T00:39:32;7.20;99.90
12568;DHT22;6349;50.904;6.136;2022-12-28T00:41:32;7.10;99.90
12568;DHT22;6349;50.904;6.136;2022-12-28T00:43:34;7.20;99.90
12568;DHT22;6349;50.904;6.136;2022-12-28T00:45:34;7.20;99.90
12568;DHT22;6349;50.904;6.136;2022-12-28T00:47:35;7.10;99.90
12568;DHT22;6349;50.904;6.136;2022-12-28T00:49:36;7.10;99.90
12568;DHT22;6349;50.904;6.136;2022-12-28T00:51:36;7.10;99.90
12568;DHT22;6349;50.904;6.136;2022-12-28T00:53:37;7.20;99.90
12568;DHT22;6349;50.904;6.136;2022-12-28T00:55:38;7.10;99.90
12568;DHT22;6349;50.904;6.136;2022-12-28T00:57:39;7.00;99.90
12568;DHT22;6349;50.904;6.136;2022-12-28T00:59:40;7.10;99.90
12568;DHT22;6349;50.904;6.136;2022-12-28T01:01:41;7.10;99.90
12568;DHT22;6349;50.904;6.136;2022-12-28T01:03:41;7.10;99.90
12568;DHT22;6349;50.904;6.136;2022-12-28T01:05:42;7.10;99.90
12568;DHT22;6349;50.904;6.136;2022-12-28T01:07:43;7.20;99.90
12568;DHT22;6349;50.904;6.136;2022-12-28T01:09:43;7.20;99.90
12568;DHT22;6349;50.904;6.136;2022-12-28T01:11:45;7.20;99.90
12568;DHT22;6349;50.904;6.136;2022-12-28T01:13:46;7.20;99.90
12568;DHT22;6349;50.904;6.136;2022-12-28T01:15:47;7.20;99.90
12568;DHT22;6349;50.904;6.136;2022-12-28T01:17:47;7.20;99.90
12568;DHT22;6349;50.904;6.136;2022-12-28T01:19:48;7.20;99.90
12568;DHT22;6349;50.904;6.136;2022-12-28T01:21:50;7.20;99.90
12568;DHT22;6349;50.904;6.136;2022-12-28T01:23:54;7.20;99.90
12568;DHT22;6349;50.904;6.136;2022-12-28T01:26:00;7.20;99.90
12568;DHT22;6349;50.904;6.136;2022-12-28T01:28:01;7.30;99.90
12568;DHT22;6349;50.904;6.136;2022-12-28T01:30:02;7.30;99.90
12568;DHT22;6349;50.904;6.136;2022-12-28T01:32:02;7.20;99.90
12568;DHT22;6349;50.904;6.136;2022-12-28T01:34:03;7.30;99.90
12568;DHT22;6349;50.904;6.136;2022-12-28T01:36:08;7.30;99.90
12568;DHT22;6349;50.904;6.136;2022-12-28T01:38:10;7.30;99.90
12568;DHT22;6349;50.904;6.136;2022-12-28T01:40:13;7.40;99.90
12568;DHT22;6349;50.904;6.136;2022-12-28T01:42:17;7.40;99.90
12568;DHT22;6349;50.904;6.136;2022-12-28T01:44:37;7.40;99.90
12568;DHT22;6349;50.904;6.136;2022-12-28T01:46:44;7.40;99.90
12568;DHT22;6349;50.904;6.136;2022-12-28T01:48:54;7.40;99.90
12568;DHT22;6349;50.904;6.136;2022-12-28T01:50:56;7.40;99.90
12568;DHT22;6349;50.904;6.136;2022-12-28T01:53:00;7.40;99.90
12568;DHT22;6349;50.904;6.136;2022-12-28T01:55:08;7.40;99.90
12568;DHT22;6349;50.904;6.136;2022-12-28T01:57:11;7.40;99.90
12568;DHT22;6349;50.904;6.136;2022-12-28T01:59:14;7.50;99.90
12568;DHT22;6349;50.904;6.136;2022-12-28T02:01:16;7.50;99.90
12568;DHT22;6349;50.904;6.136;2022-12-28T02:03:21;7.50;99.90
12568;DHT22;6349;50.904;6.136;2022-12-28T02:05:31;7.40;99.90
12568;DHT22;6349;50.904;6.136;2022-12-28T02:07:39;7.50;99.90
12568;DHT22;6349;50.904;6.136;2022-12-28T02:09:42;7.50;99.90
12568;DHT22;6349;50.904;6.136;2022-12-28T02:11:43;7.50;99.90
12568;DHT22;6349;50.904;6.136;2022-12-28T02:13:47;7.50;99.90
12568;DHT22;6349;50.904;6.136;2022-12-28T02:15:48;7.50;99.90
12568;DHT22;6349;50.904;6.136;2022-12-28T02:17:49;7.50;99.90
12568;DHT22;6349;50.904;6.136;2022-12-28T02:19:50;7.50;99.90
12568;DHT22;6349;50.904;6.136;2022-12-28T02:22:15;7.50;99.90
12568;DHT22;6349;50.904;6.136;2022-12-28T02:24:41;7.50;99.90
12568;DHT22;6349;50.904;6.136;2022-12-28T02:27:01;7.50;99.90
12568;DHT22;6349;50.904;6.136;2022-12-28T02:32:00;7.50;99.90
12568;DHT22;6349;50.904;6.136;2022-12-28T02:34:24;7.50;99.90
12568;DHT22;6349;50.904;6.136;2022-12-28T02:36:29;7.60;99.90
12568;DHT22;6349;50.904;6.136;2022-12-28T02:38:36;7.50;99.90
12568;DHT22;6349;50.904;6.136;2022-12-28T02:40:42;7.60;99.90
12568;DHT22;6349;50.904;6.136;2022-12-28T02:42:45;7.50;99.90
12568;DHT22;6349;50.904;6.136;2022-12-28T02:44:46;7.50;99.90
12568;DHT22;6349;50.904;6.136;2022-12-28T02:47:13;7.50;99.90
12568;DHT22;6349;50.904;6.136;2022-12-28T02:49:35;7.50;99.90
12568;DHT22;6349;50.904;6.136;2022-12-28T02:54:46;7.60;99.90
12568;DHT22;6349;50.904;6.136;2022-12-28T02:57:33;7.60;99.90
12568;DHT22;6349;50.904;6.136;2022-12-28T02:59:48;7.60;99.90
12568;DHT22;6349;50.904;6.136;2022-12-28T03:04:40;7.60;99.90
12568;DHT22;6349;50.904;6.136;2022-12-28T03:09:20;7.70;99.90
12568;DHT22;6349;50.904;6.136;2022-12-28T03:11:33;7.70;99.90
12568;DHT22;6349;50.904;6.136;2022-12-28T03:13:42;7.70;99.90
12568;DHT22;6349;50.904;6.136;2022-12-28T03:15:45;7.70;99.90
12568;DHT22;6349;50.904;6.136;2022-12-28T03:17:46;7.70;99.90
12568;DHT22;6349;50.904;6.136;2022-12-28T03:20:12;7.70;99.90
12568;DHT22;6349;50.904;6.136;2022-12-28T03:22:36;7.70;99.90
12568;DHT22;6349;50.904;6.136;2022-12-28T03:25:01;7.80;99.90
12568;DHT22;6349;50.904;6.136;2022-12-28T03:27:24;7.80;99.90
12568;DHT22;6349;50.904;6.136;2022-12-28T03:29:53;7.80;99.90
12568;DHT22;6349;50.904;6.136;2022-12-28T03:32:15;7.90;99.90
12568;DHT22;6349;50.904;6.136;2022-12-28T03:34:15;7.80;99.90
12568;DHT22;6349;50.904;6.136;2022-12-28T03:36:22;7.90;99.90
12568;DHT22;6349;50.904;6.136;2022-12-28T03:38:37;7.90;99.90
12568;DHT22;6349;50.904;6.136;2022-12-28T03:40:48;7.90;99.90
12568;DHT22;6349;50.904;6.136;2022-12-28T03:42:50;8.00;99.90
12568;DHT22;6349;50.904;6.136;2022-12-28T03:45:25;7.90;99.90
12568;DHT22;6349;50.904;6.136;2022-12-28T03:47:28;7.90;99.90
12568;DHT22;6349;50.904;6.136;2022-12-28T03:49:31;7.90;99.90
12568;DHT22;6349;50.904;6.136;2022-12-28T03:51:32;7.90;99.90
12568;DHT22;6349;50.904;6.136;2022-12-28T03:53:42;7.90;99.90
12568;DHT22;6349;50.904;6.136;2022-12-28T03:55:43;7.90;99.90
12568;DHT22;6349;50.904;6.136;2022-12-28T03:57:44;7.90;99.90
12568;DHT22;6349;50.904;6.136;2022-12-28T03:59:45;7.90;99.90
12568;DHT22;6349;50.904;6.136;2022-12-28T04:01:45;8.00;99.90
12568;DHT22;6349;50.904;6.136;2022-12-28T04:03:46;8.00;99.90
12568;DHT22;6349;50.904;6.136;2022-12-28T04:05:47;8.00;99.90
12568;DHT22;6349;50.904;6.136;2022-12-28T04:07:48;8.00;99.90
12568;DHT22;6349;50.904;6.136;2022-12-28T04:09:49;8.00;99.90
12568;DHT22;6349;50.904;6.136;2022-12-28T04:11:50;8.00;99.90
12568;DHT22;6349;50.904;6.136;2022-12-28T04:13:50;8.00;99.90
12568;DHT22;6349;50.904;6.136;2022-12-28T04:15:55;7.90;99.90
12568;DHT22;6349;50.904;6.136;2022-12-28T04:17:59;8.00;99.90
12568;DHT22;6349;50.904;6.136;2022-12-28T04:20:00;7.90;99.90
12568;DHT22;6349;50.904;6.136;2022-12-28T04:22:00;7.90;99.90
12568;DHT22;6349;50.904;6.136;2022-12-28T04:24:01;8.00;99.90
12568;DHT22;6349;50.904;6.136;2022-12-28T04:26:05;8.00;99.90
12568;DHT22;6349;50.904;6.136;2022-12-28T04:28:06;7.90;99.90
12568;DHT22;6349;50.904;6.136;2022-12-28T04:30:07;8.00;99.90
12568;DHT22;6349;50.904;6.136;2022-12-28T04:32:08;8.00;99.90
12568;DHT22;6349;50.904;6.136;2022-12-28T04:34:08;8.10;99.90
12568;DHT22;6349;50.904;6.136;2022-12-28T04:36:13;8.10;99.90
12568;DHT22;6349;50.904;6.136;2022-12-28T04:38:15;8.10;99.90
12568;DHT22;6349;50.904;6.136;2022-12-28T04:40:15;8.10;99.90
12568;DHT22;6349;50.904;6.136;2022-12-28T04:42:16;8.20;99.90
12568;DHT22;6349;50.904;6.136;2022-12-28T04:44:16;8.10;99.90
12568;DHT22;6349;50.904;6.136;2022-12-28T04:46:17;8.20;99.90
12568;DHT22;6349;50.904;6.136;2022-12-28T04:48:18;8.20;99.90
12568;DHT22;6349;50.904;6.136;2022-12-28T04:50:22;8.20;99.90
12568;DHT22;6349;50.904;6.136;2022-12-28T04:52:23;8.20;99.90
12568;DHT22;6349;50.904;6.136;2022-12-28T04:54:23;8.20;99.90
12568;DHT22;6349;50.904;6.136;2022-12-28T04:56:25;8.20;99.90
12568;DHT22;6349;50.904;6.136;2022-12-28T04:58:25;8.20;99.90
12568;DHT22;6349;50.904;6.136;2022-12-28T05:00:26;8.20;99.90
12568;DHT22;6349;50.904;6.136;2022-12-28T05:02:26;8.20;99.90
12568;DHT22;6349;50.904;6.136;2022-12-28T05:04:27;8.30;99.90
12568;DHT22;6349;50.904;6.136;2022-12-28T05:06:28;8.30;99.90
12568;DHT22;6349;50.904;6.136;2022-12-28T05:08:31;8.30;99.90
12568;DHT22;6349;50.904;6.136;2022-12-28T05:10:32;8.30;99.90
12568;DHT22;6349;50.904;6.136;2022-12-28T05:12:32;8.30;99.90
12568;DHT22;6349;50.904;6.136;2022-12-28T05:14:33;8.30;99.90
12568;DHT22;6349;50.904;6.136;2022-12-28T05:16:33;8.20;99.90
12568;DHT22;6349;50.904;6.136;2022-12-28T05:18:34;8.40;99.90
12568;DHT22;6349;50.904;6.136;2022-12-28T05:20:35;8.40;99.90
12568;DHT22;6349;50.904;6.136;2022-12-28T05:22:36;8.30;99.90
12568;DHT22;6349;50.904;6.136;2022-12-28T05:24:39;8.40;99.90
12568;DHT22;6349;50.904;6.136;2022-12-28T05:26:40;8.40;99.90
12568;DHT22;6349;50.904;6.136;2022-12-28T05:28:41;8.40;99.90
12568;DHT22;6349;50.904;6.136;2022-12-28T05:30:41;8.40;99.90
12568;DHT22;6349;50.904;6.136;2022-12-28T05:32:42;8.40;99.90
12568;DHT22;6349;50.904;6.136;2022-12-28T05:34:42;8.40;99.90
12568;DHT22;6349;50.904;6.136;2022-12-28T05:36:43;8.50;99.90
12568;DHT22;6349;50.904;6.136;2022-12-28T05:38:44;8.30;99.90
12568;DHT22;6349;50.904;6.136;2022-12-28T05:40:45;8.40;99.90
12568;DHT22;6349;50.904;6.136;2022-12-28T05:42:45;8.50;99.90
12568;DHT22;6349;50.904;6.136;2022-12-28T05:44:46;8.50;99.90
12568;DHT22;6349;50.904;6.136;2022-12-28T05:46:47;8.50;99.90
12568;DHT22;6349;50.904;6.136;2022-12-28T05:48:47;8.50;99.90
12568;DHT22;6349;50.904;6.136;2022-12-28T05:50:48;8.50;99.90
12568;DHT22;6349;50.904;6.136;2022-12-28T05:52:49;8.50;99.90
12568;DHT22;6349;50.904;6.136;2022-12-28T05:54:49;8.50;99.90
12568;DHT22;6349;50.904;6.136;2022-12-28T05:56:50;8.50;99.90
12568;DHT22;6349;50.904;6.136;2022-12-28T05:58:54;8.50;99.90
12568;DHT22;6349;50.904;6.136;2022-12-28T06:01:18;8.50;99.90
12568;DHT22;6349;50.904;6.136;2022-12-28T06:03:18;8.50;99.90
12568;DHT22;6349;50.904;6.136;2022-12-28T06:05:19;8.50;99.90
12568;DHT22;6349;50.904;6.136;2022-12-28T06:07:20;8.50;99.90
12568;DHT22;6349;50.904;6.136;2022-12-28T06:09:21;8.50;99.90
12568;DHT22;6349;50.904;6.136;2022-12-28T06:11:25;8.50;99.90
12568;DHT22;6349;50.904;6.136;2022-12-28T06:13:26;8.50;99.90
12568;DHT22;6349;50.904;6.136;2022-12-28T06:15:26;8.50;99.90
12568;DHT22;6349;50.904;6.136;2022-12-28T06:17:27;8.50;99.90
12568;DHT22;6349;50.904;6.136;2022-12-28T06:19:27;8.50;99.90
12568;DHT22;6349;50.904;6.136;2022-12-28T06:21:30;8.50;99.90
12568;DHT22;6349;50.904;6.136;2022-12-28T06:23:31;8.50;99.90
12568;DHT22;6349;50.904;6.136;2022-12-28T06:25:33;8.50;99.90
12568;DHT22;6349;50.904;6.136;2022-12-28T06:27:33;8.50;99.90
12568;DHT22;6349;50.904;6.136;2022-12-28T06:29:34;8.40;99.90
12568;DHT22;6349;50.904;6.136;2022-12-28T06:31:37;8.40;99.90
12568;DHT22;6349;50.904;6.136;2022-12-28T06:33:38;8.40;99.90
12568;DHT22;6349;50.904;6.136;2022-12-28T06:35:40;8.30;99.90
12568;DHT22;6349;50.904;6.136;2022-12-28T06:37:40;8.40;99.90
12568;DHT22;6349;50.904;6.136;2022-12-28T06:39:41;8.40;99.90
12568;DHT22;6349;50.904;6.136;2022-12-28T06:41:42;8.40;99.90
12568;DHT22;6349;50.904;6.136;2022-12-28T06:43:44;8.40;99.90
12568;DHT22;6349;50.904;6.136;2022-12-28T06:45:59;8.40;99.90
12568;DHT22;6349;50.904;6.136;2022-12-28T06:48:00;8.40;99.90
12568;DHT22;6349;50.904;6.136;2022-12-28T06:50:01;8.40;99.90
12568;DHT22;6349;50.904;6.136;2022-12-28T06:52:02;8.40;99.90
12568;DHT22;6349;50.904;6.136;2022-12-28T06:54:03;8.40;99.90
12568;DHT22;6349;50.904;6.136;2022-12-28T06:56:07;8.40;99.90
12568;DHT22;6349;50.904;6.136;2022-12-28T06:58:08;8.50;99.90
12568;DHT22;6349;50.904;6.136;2022-12-28T07:00:09;8.40;99.90
12568;DHT22;6349;50.904;6.136;2022-12-28T07:02:10;8.40;99.90
12568;DHT22;6349;50.904;6.136;2022-12-28T07:04:11;8.40;99.90
12568;DHT22;6349;50.904;6.136;2022-12-28T07:06:13;8.40;99.90
12568;DHT22;6349;50.904;6.136;2022-12-28T07:08:15;8.50;99.90
12568;DHT22;6349;50.904;6.136;2022-12-28T07:10:15;8.50;99.90
12568;DHT22;6349;50.904;6.136;2022-12-28T07:12:16;8.50;99.90
12568;DHT22;6349;50.904;6.136;2022-12-28T07:14:16;8.50;99.90
12568;DHT22;6349;50.904;6.136;2022-12-28T07:16:20;8.60;99.90
12568;DHT22;6349;50.904;6.136;2022-12-28T07:18:21;8.50;99.90
12568;DHT22;6349;50.904;6.136;2022-12-28T07:20:21;8.50;99.90
12568;DHT22;6349;50.904;6.136;2022-12-28T07:22:22;8.60;99.90
12568;DHT22;6349;50.904;6.136;2022-12-28T07:24:22;8.60;99.90
12568;DHT22;6349;50.904;6.136;2022-12-28T07:26:26;8.60;99.90
12568;DHT22;6349;50.904;6.136;2022-12-28T07:28:27;8.60;99.90
12568;DHT22;6349;50.904;6.136;2022-12-28T07:30:27;8.60;99.90
12568;DHT22;6349;50.904;6.136;2022-12-28T07:32:29;8.60;99.90
12568;DHT22;6349;50.904;6.136;2022-12-28T07:34:30;8.70;99.90
12568;DHT22;6349;50.904;6.136;2022-12-28T07:36:32;8.60;99.90
12568;DHT22;6349;50.904;6.136;2022-12-28T07:38:34;8.60;99.90
12568;DHT22;6349;50.904;6.136;2022-12-28T07:40:35;8.60;99.90
12568;DHT22;6349;50.904;6.136;2022-12-28T07:42:37;8.60;99.90
12568;DHT22;6349;50.904;6.136;2022-12-28T07:44:38;8.70;99.90
12568;DHT22;6349;50.904;6.136;2022-12-28T07:46:46;8.70;99.90
12568;DHT22;6349;50.904;6.136;2022-12-28T07:48:49;8.70;99.90
12568;DHT22;6349;50.904;6.136;2022-12-28T07:50:52;8.70;99.90
12568;DHT22;6349;50.904;6.136;2022-12-28T07:52:53;8.70;99.90
12568;DHT22;6349;50.904;6.136;2022-12-28T07:54:55;8.70;99.90
12568;DHT22;6349;50.904;6.136;2022-12-28T07:56:57;8.80;99.90
12568;DHT22;6349;50.904;6.136;2022-12-28T07:59:01;8.70;99.90
12568;DHT22;6349;50.904;6.136;2022-12-28T08:01:08;8.70;99.90
12568;DHT22;6349;50.904;6.136;2022-12-28T08:03:10;8.80;99.90
12568;DHT22;6349;50.904;6.136;2022-12-28T08:05:11;8.70;99.90
12568;DHT22;6349;50.904;6.136;2022-12-28T08:07:12;8.80;99.90
12568;DHT22;6349;50.904;6.136;2022-12-28T08:09:14;8.80;99.90
12568;DHT22;6349;50.904;6.136;2022-12-28T08:11:19;8.70;99.90
12568;DHT22;6349;50.904;6.136;2022-12-28T08:13:22;8.80;99.90
12568;DHT22;6349;50.904;6.136;2022-12-28T08:15:23;8.80;99.90
12568;DHT22;6349;50.904;6.136;2022-12-28T08:17:25;8.80;99.90
12568;DHT22;6349;50.904;6.136;2022-12-28T08:19:27;8.90;99.90
12568;DHT22;6349;50.904;6.136;2022-12-28T08:21:31;8.80;99.90
12568;DHT22;6349;50.904;6.136;2022-12-28T08:23:33;8.90;99.90
12568;DHT22;6349;50.904;6.136;2022-12-28T08:25:34;8.80;99.90
12568;DHT22;6349;50.904;6.136;2022-12-28T08:27:35;8.90;99.90
12568;DHT22;6349;50.904;6.136;2022-12-28T08:29:37;8.80;99.90
12568;DHT22;6349;50.904;6.136;2022-12-28T08:31:41;8.80;99.90
12568;DHT22;6349;50.904;6.136;2022-12-28T08:33:42;8.90;99.90
12568;DHT22;6349;50.904;6.136;2022-12-28T08:35:44;8.80;99.90
12568;DHT22;6349;50.904;6.136;2022-12-28T08:37:45;8.90;99.90
12568;DHT22;6349;50.904;6.136;2022-12-28T08:39:47;8.90;99.90
12568;DHT22;6349;50.904;6.136;2022-12-28T08:41:48;9.00;99.90
12568;DHT22;6349;50.904;6.136;2022-12-28T08:43:51;9.00;99.90
12568;DHT22;6349;50.904;6.136;2022-12-28T08:46:11;8.90;99.90
12568;DHT22;6349;50.904;6.136;2022-12-28T08:48:14;9.00;99.90
12568;DHT22;6349;50.904;6.136;2022-12-28T08:50:14;9.00;99.90
12568;DHT22;6349;50.904;6.136;2022-12-28T08:52:16;9.00;99.90
12568;DHT22;6349;50.904;6.136;2022-12-28T08:54:19;8.90;99.90
12568;DHT22;6349;50.904;6.136;2022-12-28T08:56:23;8.90;99.90
12568;DHT22;6349;50.904;6.136;2022-12-28T08:58:25;8.90;99.90
12568;DHT22;6349;50.904;6.136;2022-12-28T09:00:27;8.90;99.90
12568;DHT22;6349;50.904;6.136;2022-12-28T09:02:29;8.90;99.90
12568;DHT22;6349;50.904;6.136;2022-12-28T09:04:29;9.00;99.90
12568;DHT22;6349;50.904;6.136;2022-12-28T09:06:34;9.00;99.90
12568;DHT22;6349;50.904;6.136;2022-12-28T09:08:37;9.00;99.90
12568;DHT22;6349;50.904;6.136;2022-12-28T09:10:41;9.10;99.90
12568;DHT22;6349;50.904;6.136;2022-12-28T09:12:43;9.10;99.90
12568;DHT22;6349;50.904;6.136;2022-12-28T09:14:45;9.10;99.90
12568;DHT22;6349;50.904;6.136;2022-12-28T09:16:47;9.10;99.90
12568;DHT22;6349;50.904;6.136;2022-12-28T09:18:54;9.10;99.90
12568;DHT22;6349;50.904;6.136;2022-12-28T09:20:56;9.10;99.90
12568;DHT22;6349;50.904;6.136;2022-12-28T09:22:56;9.10;99.90
12568;DHT22;6349;50.904;6.136;2022-12-28T09:24:57;9.10;99.90
12568;DHT22;6349;50.904;6.136;2022-12-28T09:26:58;9.10;99.90
12568;DHT22;6349;50.904;6.136;2022-12-28T09:29:00;9.20;99.90
12568;DHT22;6349;50.904;6.136;2022-12-28T09:31:06;9.20;99.90
12568;DHT22;6349;50.904;6.136;2022-12-28T09:33:07;9.20;99.90
12568;DHT22;6349;50.904;6.136;2022-12-28T09:35:28;9.20;99.90
12568;DHT22;6349;50.904;6.136;2022-12-28T09:37:28;9.20;99.90
12568;DHT22;6349;50.904;6.136;2022-12-28T09:39:29;9.20;99.90
12568;DHT22;6349;50.904;6.136;2022-12-28T09:43:43;9.20;99.90
12568;DHT22;6349;50.904;6.136;2022-12-28T09:45:44;9.30;99.90
12568;DHT22;6349;50.904;6.136;2022-12-28T09:47:50;9.30;99.90
12568;DHT22;6349;50.904;6.136;2022-12-28T09:52:34;9.40;99.90
12568;DHT22;6349;50.904;6.136;2022-12-28T09:54:35;9.40;99.90
12568;DHT22;6349;50.904;6.136;2022-12-28T09:56:38;9.40;99.90
12568;DHT22;6349;50.904;6.136;2022-12-28T09:58:41;9.40;99.90
12568;DHT22;6349;50.904;6.136;2022-12-28T10:00:47;9.40;99.90
12568;DHT22;6349;50.904;6.136;2022-12-28T10:02:52;9.40;99.90
12568;DHT22;6349;50.904;6.136;2022-12-28T10:04:53;9.40;99.90
12568;DHT22;6349;50.904;6.136;2022-12-28T10:06:55;9.40;99.90
12568;DHT22;6349;50.904;6.136;2022-12-28T10:08:59;9.40;99.90
12568;DHT22;6349;50.904;6.136;2022-12-28T10:11:01;9.40;99.90
12568;DHT22;6349;50.904;6.136;2022-12-28T10:13:15;9.50;99.90
12568;DHT22;6349;50.904;6.136;2022-12-28T10:15:16;9.50;99.90
12568;DHT22;6349;50.904;6.136;2022-12-28T10:17:21;9.60;99.90
12568;DHT22;6349;50.904;6.136;2022-12-28T10:19:24;9.60;99.90
12568;DHT22;6349;50.904;6.136;2022-12-28T10:21:29;9.60;99.90
12568;DHT22;6349;50.904;6.136;2022-12-28T10:23:31;9.60;99.90
12568;DHT22;6349;50.904;6.136;2022-12-28T10:25:34;9.60;99.90
12568;DHT22;6349;50.904;6.136;2022-12-28T10:27:35;9.60;99.90
12568;DHT22;6349;50.904;6.136;2022-12-28T10:29:36;9.60;99.90
12568;DHT22;6349;50.904;6.136;2022-12-28T10:31:39;9.60;99.90
12568;DHT22;6349;50.904;6.136;2022-12-28T10:33:48;9.70;99.90
12568;DHT22;6349;50.904;6.136;2022-12-28T10:35:52;9.70;99.90
12568;DHT22;6349;50.904;6.136;2022-12-28T10:38:00;9.70;99.90
12568;DHT22;6349;50.904;6.136;2022-12-28T10:40:07;9.70;99.90
12568;DHT22;6349;50.904;6.136;2022-12-28T10:42:23;9.80;99.90
12568;DHT22;6349;50.904;6.136;2022-12-28T10:44:26;9.70;99.90
12568;DHT22;6349;50.904;6.136;2022-12-28T10:46:28;9.80;99.90
12568;DHT22;6349;50.904;6.136;2022-12-28T10:48:34;9.70;99.90
12568;DHT22;6349;50.904;6.136;2022-12-28T10:50:42;9.80;99.90
12568;DHT22;6349;50.904;6.136;2022-12-28T10:52:54;9.80;99.90
12568;DHT22;6349;50.904;6.136;2022-12-28T10:54:55;9.80;99.90
12568;DHT22;6349;50.904;6.136;2022-12-28T10:56:56;9.90;99.90
12568;DHT22;6349;50.904;6.136;2022-12-28T11:01:26;9.90;99.90
12568;DHT22;6349;50.904;6.136;2022-12-28T11:03:30;9.90;99.90
12568;DHT22;6349;50.904;6.136;2022-12-28T11:05:31;9.90;99.90
12568;DHT22;6349;50.904;6.136;2022-12-28T11:07:35;9.70;99.90
12568;DHT22;6349;50.904;6.136;2022-12-28T11:09:36;9.90;99.90
12568;DHT22;6349;50.904;6.136;2022-12-28T11:11:36;9.90;99.90
12568;DHT22;6349;50.904;6.136;2022-12-28T11:13:37;9.90;99.90
12568;DHT22;6349;50.904;6.136;2022-12-28T11:15:39;9.90;99.90
12568;DHT22;6349;50.904;6.136;2022-12-28T11:17:39;9.80;99.90
12568;DHT22;6349;50.904;6.136;2022-12-28T11:19:40;9.80;99.90
12568;DHT22;6349;50.904;6.136;2022-12-28T11:21:42;9.90;99.90
12568;DHT22;6349;50.904;6.136;2022-12-28T11:23:44;9.80;99.90
12568;DHT22;6349;50.904;6.136;2022-12-28T11:25:45;9.80;99.90
12568;DHT22;6349;50.904;6.136;2022-12-28T11:27:46;9.80;99.90
12568;DHT22;6349;50.904;6.136;2022-12-28T11:29:49;9.90;99.90
12568;DHT22;6349;50.904;6.136;2022-12-28T11:32:00;9.80;99.90
12568;DHT22;6349;50.904;6.136;2022-12-28T11:34:14;9.80;99.90
12568;DHT22;6349;50.904;6.136;2022-12-28T11:36:20;9.90;99.90
12568;DHT22;6349;50.904;6.136;2022-12-28T11:38:43;9.80;99.90
12568;DHT22;6349;50.904;6.136;2022-12-28T11:40:47;9.80;99.90
12568;DHT22;6349;50.904;6.136;2022-12-28T11:42:54;9.90;99.90
12568;DHT22;6349;50.904;6.136;2022-12-28T11:44:55;9.80;99.90
12568;DHT22;6349;50.904;6.136;2022-12-28T11:47:19;9.80;99.90
12568;DHT22;6349;50.904;6.136;2022-12-28T11:49:26;9.80;99.90
12568;DHT22;6349;50.904;6.136;2022-12-28T11:51:32;9.80;99.90
12568;DHT22;6349;50.904;6.136;2022-12-28T11:55:57;9.80;99.90
12568;DHT22;6349;50.904;6.136;2022-12-28T12:00:46;9.90;99.90
12568;DHT22;6349;50.904;6.136;2022-12-28T12:02:54;9.80;99.90
12568;DHT22;6349;50.904;6.136;2022-12-28T12:04:55;9.90;99.90
12568;DHT22;6349;50.904;6.136;2022-12-28T12:11:38;9.90;99.90
12568;DHT22;6349;50.904;6.136;2022-12-28T12:13:42;9.80;99.90
12568;DHT22;6349;50.904;6.136;2022-12-28T12:15:44;9.80;99.90
12568;DHT22;6349;50.904;6.136;2022-12-28T12:18:03;9.80;99.90
12568;DHT22;6349;50.904;6.136;2022-12-28T12:20:14;9.80;99.90
12568;DHT22;6349;50.904;6.136;2022-12-28T12:22:22;9.70;99.90
12568;DHT22;6349;50.904;6.136;2022-12-28T12:24:28;9.70;99.90
12568;DHT22;6349;50.904;6.136;2022-12-28T12:26:39;9.60;99.90
12568;DHT22;6349;50.904;6.136;2022-12-28T12:28:44;9.60;99.90
12568;DHT22;6349;50.904;6.136;2022-12-28T12:30:46;9.60;99.90
12568;DHT22;6349;50.904;6.136;2022-12-28T12:32:53;9.50;99.90
12568;DHT22;6349;50.904;6.136;2022-12-28T12:35:06;9.50;99.90
12568;DHT22;6349;50.904;6.136;2022-12-28T12:39:37;9.40;99.90
12568;DHT22;6349;50.904;6.136;2022-12-28T12:44:34;9.40;99.90
12568;DHT22;6349;50.904;6.136;2022-12-28T12:52:06;9.50;99.90
12568;DHT22;6349;50.904;6.136;2022-12-28T12:54:37;9.60;99.90
12568;DHT22;6349;50.904;6.136;2022-12-28T12:56:49;9.60;99.90
12568;DHT22;6349;50.904;6.136;2022-12-28T13:01:53;9.60;99.90
12568;DHT22;6349;50.904;6.136;2022-12-28T13:04:40;9.70;99.90
12568;DHT22;6349;50.904;6.136;2022-12-28T13:06:41;9.80;99.90
12568;DHT22;6349;50.904;6.136;2022-12-28T13:08:49;9.80;99.90
12568;DHT22;6349;50.904;6.136;2022-12-28T13:10:51;9.80;99.90
12568;DHT22;6349;50.904;6.136;2022-12-28T13:12:55;9.90;99.90
12568;DHT22;6349;50.904;6.136;2022-12-28T13:14:59;9.80;99.90
12568;DHT22;6349;50.904;6.136;2022-12-28T13:17:00;9.80;99.90
12568;DHT22;6349;50.904;6.136;2022-12-28T13:19:04;9.80;99.90
12568;DHT22;6349;50.904;6.136;2022-12-28T13:21:05;9.80;99.90
12568;DHT22;6349;50.904;6.136;2022-12-28T13:23:15;9.90;99.90
12568;DHT22;6349;50.904;6.136;2022-12-28T13:25:32;9.90;99.90
12568;DHT22;6349;50.904;6.136;2022-12-28T13:27:34;10.00;99.90
12568;DHT22;6349;50.904;6.136;2022-12-28T13:29:38;10.00;99.90
12568;DHT22;6349;50.904;6.136;2022-12-28T13:31:40;9.90;99.90
12568;DHT22;6349;50.904;6.136;2022-12-28T13:33:41;9.90;99.90
12568;DHT22;6349;50.904;6.136;2022-12-28T13:35:42;9.90;99.90
12568;DHT22;6349;50.904;6.136;2022-12-28T13:37:43;10.00;99.90
12568;DHT22;6349;50.904;6.136;2022-12-28T13:40:15;10.00;99.90
12568;DHT22;6349;50.904;6.136;2022-12-28T13:42:20;9.90;99.90
12568;DHT22;6349;50.904;6.136;2022-12-28T13:46:33;9.90;99.90
12568;DHT22;6349;50.904;6.136;2022-12-28T13:48:37;9.90;99.90
12568;DHT22;6349;50.904;6.136;2022-12-28T13:50:39;10.00;99.90
12568;DHT22;6349;50.904;6.136;2022-12-28T13:53:23;9.90;99.90
12568;DHT22;6349;50.904;6.136;2022-12-28T13:55:14;10.00;99.90
12568;DHT22;6349;50.904;6.136;2022-12-28T13:57:17;10.00;99.90
12568;DHT22;6349;50.904;6.136;2022-12-28T13:59:19;10.00;99.90
12568;DHT22;6349;50.904;6.136;2022-12-28T14:01:23;10.00;99.90
12568;DHT22;6349;50.904;6.136;2022-12-28T14:03:24;10.00;99.90
12568;DHT22;6349;50.904;6.136;2022-12-28T14:05:28;10.00;99.90
12568;DHT22;6349;50.904;6.136;2022-12-28T14:07:29;10.00;99.90
12568;DHT22;6349;50.904;6.136;2022-12-28T14:09:32;9.90;99.90
12568;DHT22;6349;50.904;6.136;2022-12-28T14:11:36;9.90;99.90
12568;DHT22;6349;50.904;6.136;2022-12-28T14:13:37;9.90;99.90
12568;DHT22;6349;50.904;6.136;2022-12-28T14:15:39;9.90;99.90